Terminal Aerodrome Forecast
Issued by NWS Wakefield, VA

Home | Current Version | Previous Version | Text Only | Print | Product List | Glossary On
Versions: 1 2 3 4 5 6 7 8 9 10 11 12 13 14 15
000
FTUS41 KAKQ 011742
TAFRIC
TAF
KRIC 011742Z 0118/0218 26009KT P6SM BKN250
     FM012300 23008KT P6SM SCT100 BKN200
     FM020600 21005KT P6SM BKN080 OVC150
     FM021200 20004KT P6SM -RA BKN050 OVC120
     FM021600 VRB05KT 4SM -RA BR OVC035=

USA.gov is the U.S. government's official web portal to all federal, state and local government web resources and services.